Time;durP1;ratioP1;P1;durP2;ratioP2;P2;SDS_P1;SDS_P2;PMS_P1;PMS_P2;Temp;Humidity;BMP_temperature;BMP_pressure;BME280_temperature;BME280_humidity;BME280_pressure;Samples;Min_cycle;Max_cycle;Signal;HPM_P1;HPM_P2
2023/03/03 00:01:33;;;;;;;39.50;20.47;;;-0.80;99.90;;;;;;5002350;28;20223;-82
2023/03/03 00:04:00;;;;;;;43.10;20.90;;;-0.80;99.90;;;;;;5005328;28;20217;-82
2023/03/03 00:06:29;;;;;;;42.37;21.43;;;-0.80;99.90;;;;;;5004449;28;20284;-81
2023/03/03 00:08:56;;;;;;;41.63;21.73;;;-0.80;99.90;;;;;;4994243;28;20221;-81
2023/03/03 00:11:23;;;;;;;47.63;20.93;;;-0.80;99.90;;;;;;5025044;28;20237;-81
2023/03/03 00:13:52;;;;;;;45.20;22.17;;;-0.70;99.90;;;;;;4999501;28;20225;-82
2023/03/03 00:16:24;;;;;;;51.23;22.33;;;-0.70;99.90;;;;;;4999812;28;20226;-82
2023/03/03 00:18:53;;;;;;;58.23;22.93;;;-0.70;99.90;;;;;;5001916;28;20874;-82
2023/03/03 00:21:29;;;;;;;44.80;22.13;;;-0.60;99.90;;;;;;5005432;28;20229;-82
2023/03/03 00:24:10;;;;;;;79.03;24.93;;;-0.50;99.90;;;;;;4999655;28;20248;-82
2023/03/03 00:26:39;;;;;;;132.27;26.23;;;-0.50;99.90;;;;;;4992566;28;20226;-82
2023/03/03 00:29:29;;;;;;;121.87;26.23;;;-0.40;99.90;;;;;;4999096;28;20232;-82
2023/03/03 00:32:13;;;;;;;129.97;25.57;;;-0.20;99.90;;;;;;4993201;28;20308;-83
2023/03/03 00:34:41;;;;;;;289.90;35.70;;;-0.20;99.90;;;;;;4989340;28;20783;-83
2023/03/03 00:37:28;;;;;;;155.70;28.63;;;-0.10;99.90;;;;;;5010512;28;20322;-82
2023/03/03 00:40:01;;;;;;;112.07;25.53;;;-0.10;99.90;;;;;;5002385;28;20274;-82
2023/03/03 00:42:28;;;;;;;202.83;28.20;;;0.00;99.90;;;;;;4990771;28;20251;-82
2023/03/03 00:44:59;;;;;;;152.40;28.07;;;0.00;99.90;;;;;;5002483;28;20949;-82
2023/03/03 00:47:31;;;;;;;97.03;25.93;;;0.10;99.90;;;;;;4992987;28;20231;-83
2023/03/03 00:50:31;;;;;;;155.97;26.73;;;0.20;99.90;;;;;;5012872;28;20642;-83
2023/03/03 00:53:06;;;;;;;137.93;26.57;;;0.20;99.90;;;;;;5013401;28;20214;-83
2023/03/03 00:55:44;;;;;;;200.40;30.20;;;0.30;99.90;;;;;;4995948;28;20270;-83
2023/03/03 00:58:11;;;;;;;228.90;30.40;;;0.30;99.90;;;;;;5000814;28;20260;-83
2023/03/03 01:00:42;;;;;;;324.03;36.37;;;0.30;99.90;;;;;;5006960;28;20222;-82
2023/03/03 01:03:14;;;;;;;109.43;22.67;;;0.40;99.90;;;;;;5009035;28;20758;-82
2023/03/03 01:05:43;;;;;;;143.13;25.43;;;0.40;99.90;;;;;;5007403;28;20227;-83
2023/03/03 01:08:10;;;;;;;152.40;25.13;;;0.40;99.90;;;;;;4996303;28;20236;-82
2023/03/03 01:10:40;;;;;;;364.37;35.07;;;0.40;99.90;;;;;;5004830;28;20222;-82
2023/03/03 01:13:08;;;;;;;378.83;38.33;;;0.50;99.90;;;;;;4999294;28;20229;-84
2023/03/03 01:15:35;;;;;;;326.10;34.63;;;0.40;99.90;;;;;;5010401;28;20222;-83
2023/03/03 01:18:02;;;;;;;195.87;27.40;;;0.50;99.90;;;;;;5000643;28;20215;-83
2023/03/03 01:20:29;;;;;;;115.77;21.67;;;0.50;99.90;;;;;;4997691;28;20231;-82
2023/03/03 01:22:57;;;;;;;210.10;27.60;;;0.50;99.90;;;;;;5018096;28;20917;-84
2023/03/03 01:25:24;;;;;;;148.83;23.27;;;0.50;99.90;;;;;;4996774;28;20234;-83
2023/03/03 01:27:54;;;;;;;284.77;30.00;;;0.40;99.90;;;;;;5003111;28;20285;-84
2023/03/03 01:30:21;;;;;;;255.90;30.73;;;0.50;99.90;;;;;;5004682;28;20217;-83
2023/03/03 01:32:50;;;;;;;302.00;31.43;;;0.50;99.90;;;;;;5006869;28;20236;-83
2023/03/03 01:35:17;;;;;;;400.13;37.97;;;0.50;99.90;;;;;;4995433;28;20250;-84
2023/03/03 01:37:44;;;;;;;309.90;31.93;;;0.50;99.90;;;;;;5004065;28;20945;-83
2023/03/03 01:40:17;;;;;;;249.17;28.47;;;0.50;99.90;;;;;;5002482;28;20310;-84
2023/03/03 01:42:44;;;;;;;167.77;26.13;;;0.50;99.90;;;;;;5001699;28;20241;-82
2023/03/03 01:45:15;;;;;;;144.50;24.47;;;0.50;99.90;;;;;;5001861;28;20300;-82
2023/03/03 01:47:47;;;;;;;116.53;22.83;;;0.50;99.90;;;;;;5011461;28;20356;-82
2023/03/03 01:50:21;;;;;;;356.00;33.33;;;0.60;99.90;;;;;;5016612;28;20312;-83
2023/03/03 01:52:48;;;;;;;323.47;32.33;;;0.60;99.90;;;;;;5002200;28;20749;-83
2023/03/03 01:55:21;;;;;;;263.77;28.93;;;0.60;99.90;;;;;;4997605;28;20311;-83
2023/03/03 01:57:55;;;;;;;359.90;31.63;;;0.60;99.90;;;;;;5006231;28;20218;-82
2023/03/03 02:00:30;;;;;;;357.57;32.77;;;0.60;99.90;;;;;;4996796;28;20224;-84
2023/03/03 02:03:03;;;;;;;392.73;35.00;;;0.60;99.90;;;;;;5010397;28;20232;-82
2023/03/03 02:05:30;;;;;;;227.63;26.70;;;0.60;99.90;;;;;;4997587;28;20230;-82
2023/03/03 02:07:57;;;;;;;243.83;27.23;;;0.60;99.90;;;;;;4994525;28;20314;-82
2023/03/03 02:10:28;;;;;;;319.50;30.33;;;0.60;99.90;;;;;;5002782;28;20228;-83
2023/03/03 02:12:58;;;;;;;182.53;24.13;;;0.60;99.90;;;;;;4996541;28;20233;-83
2023/03/03 02:15:27;;;;;;;272.50;28.50;;;0.50;99.90;;;;;;4990970;28;20275;-82
2023/03/03 02:17:56;;;;;;;172.37;23.93;;;0.50;99.90;;;;;;5004771;28;20275;-82
2023/03/03 02:20:43;;;;;;;539.73;43.57;;;0.50;99.90;;;;;;5009352;28;20235;-82
2023/03/03 02:23:16;;;;;;;295.57;32.17;;;0.50;99.90;;;;;;5001418;28;20841;-82
2023/03/03 02:25:54;;;;;;;228.33;26.60;;;0.50;99.90;;;;;;5023272;28;20248;-81
2023/03/03 02:28:24;;;;;;;323.60;32.60;;;0.50;99.90;;;;;;4998747;28;20675;-82
2023/03/03 02:30:54;;;;;;;334.20;30.63;;;0.40;99.90;;;;;;5007219;28;20274;-82
2023/03/03 02:33:21;;;;;;;445.07;36.80;;;0.40;99.90;;;;;;5002245;28;20542;-82
2023/03/03 02:35:48;;;;;;;226.63;26.33;;;0.40;99.90;;;;;;5014627;28;20859;-81
2023/03/03 02:38:20;;;;;;;323.83;33.53;;;0.40;99.90;;;;;;5005371;28;20653;-82
2023/03/03 02:40:56;;;;;;;149.13;22.60;;;0.40;99.90;;;;;;5008594;28;20227;-82
2023/03/03 02:43:29;;;;;;;333.00;32.07;;;0.40;99.90;;;;;;5007101;28;20965;-82
2023/03/03 02:45:56;;;;;;;275.43;30.40;;;0.40;99.90;;;;;;5015621;28;20925;-83
2023/03/03 02:48:24;;;;;;;120.67;20.63;;;0.40;99.90;;;;;;5011152;28;20236;-83
2023/03/03 02:50:51;;;;;;;306.77;30.70;;;0.40;99.90;;;;;;5009512;28;20310;-82
2023/03/03 02:53:18;;;;;;;341.40;31.90;;;0.40;99.90;;;;;;5005728;28;21240;-83
2023/03/03 02:55:45;;;;;;;303.33;29.73;;;0.40;99.90;;;;;;4995599;28;20323;-82
2023/03/03 02:58:12;;;;;;;331.50;32.97;;;0.40;99.90;;;;;;5011492;28;20226;-82
2023/03/03 03:00:40;;;;;;;218.77;25.40;;;0.40;99.90;;;;;;5005229;28;20724;-82
2023/03/03 03:03:07;;;;;;;348.43;35.07;;;0.40;99.90;;;;;;5005239;28;20234;-82
2023/03/03 03:05:38;;;;;;;141.87;21.33;;;0.40;99.90;;;;;;5028297;28;20329;-81
2023/03/03 03:08:05;;;;;;;100.90;21.33;;;0.40;99.90;;;;;;5006162;28;20581;-81
2023/03/03 03:10:32;;;;;;;162.43;20.97;;;0.50;99.90;;;;;;4998255;28;20229;-81
2023/03/03 03:12:59;;;;;;;284.17;28.27;;;0.50;99.90;;;;;;5002586;28;20243;-81
2023/03/03 03:15:26;;;;;;;214.60;24.57;;;0.50;99.90;;;;;;5006430;28;20707;-83
2023/03/03 03:17:55;;;;;;;125.87;19.97;;;0.50;99.90;;;;;;4998342;28;20235;-83
2023/03/03 03:20:22;;;;;;;253.03;25.73;;;0.40;99.90;;;;;;5006988;28;20226;-82
2023/03/03 03:22:49;;;;;;;146.63;21.03;;;0.40;99.90;;;;;;5003472;28;20236;-83
2023/03/03 03:25:16;;;;;;;196.23;24.20;;;0.40;99.90;;;;;;4997475;28;20218;-83
2023/03/03 03:27:43;;;;;;;207.90;24.70;;;0.40;99.90;;;;;;5001619;28;20588;-82
2023/03/03 03:30:11;;;;;;;155.60;22.17;;;0.30;99.90;;;;;;5011001;28;20222;-83
2023/03/03 03:32:39;;;;;;;159.07;20.93;;;0.30;99.90;;;;;;5002033;28;20236;-83
2023/03/03 03:35:10;;;;;;;159.00;21.80;;;0.30;99.90;;;;;;4999498;28;20435;-82
2023/03/03 03:37:38;;;;;;;71.37;17.87;;;0.20;99.90;;;;;;5005294;28;20311;-83
2023/03/03 03:40:05;;;;;;;268.37;29.50;;;0.20;99.90;;;;;;5005763;28;20254;-82
2023/03/03 03:42:32;;;;;;;217.80;25.03;;;0.20;99.90;;;;;;5017788;28;20244;-83
2023/03/03 03:44:59;;;;;;;275.00;29.37;;;0.20;99.90;;;;;;5006773;28;20308;-82
2023/03/03 03:47:26;;;;;;;127.70;20.10;;;0.20;99.90;;;;;;4994435;28;20236;-82
2023/03/03 03:49:54;;;;;;;111.60;20.13;;;0.20;99.90;;;;;;5007380;28;20234;-83
2023/03/03 03:52:22;;;;;;;171.40;23.97;;;0.20;99.90;;;;;;5008679;28;20267;-82
2023/03/03 03:54:49;;;;;;;65.23;17.83;;;0.20;99.90;;;;;;5000383;28;20233;-82
2023/03/03 03:57:16;;;;;;;322.27;30.43;;;0.20;99.90;;;;;;4998318;28;20224;-83
2023/03/03 03:59:44;;;;;;;217.87;24.83;;;0.20;99.90;;;;;;5001067;28;20282;-83
2023/03/03 04:02:11;;;;;;;229.80;24.97;;;0.20;99.90;;;;;;5007289;28;20802;-82
2023/03/03 04:04:37;;;;;;;37.70;16.43;;;0.20;99.90;;;;;;5011622;28;20269;-82
2023/03/03 04:07:05;;;;;;;256.80;28.27;;;0.20;99.90;;;;;;5003015;28;20214;-81
2023/03/03 04:09:33;;;;;;;61.43;18.43;;;0.20;99.90;;;;;;5001618;28;20249;-83
2023/03/03 04:12:01;;;;;;;132.23;21.07;;;0.20;99.90;;;;;;5001025;28;20224;-82
2023/03/03 04:14:30;;;;;;;144.47;21.03;;;0.20;99.90;;;;;;5002486;28;20230;-82
2023/03/03 04:16:57;;;;;;;142.23;19.57;;;0.20;99.90;;;;;;4996776;28;20273;-81
2023/03/03 04:19:24;;;;;;;148.37;21.27;;;0.20;99.90;;;;;;4997023;28;20241;-81
2023/03/03 04:21:51;;;;;;;175.10;22.17;;;0.20;99.90;;;;;;4997075;28;20221;-81
2023/03/03 04:24:19;;;;;;;93.73;17.87;;;0.20;99.90;;;;;;5014941;28;20231;-81
2023/03/03 04:26:48;;;;;;;150.37;20.80;;;0.20;99.90;;;;;;5002641;28;20226;-81
2023/03/03 04:29:15;;;;;;;220.83;23.37;;;0.20;99.90;;;;;;5000340;28;20277;-81
2023/03/03 04:31:43;;;;;;;186.57;22.93;;;0.20;99.90;;;;;;4997271;28;20224;-81
2023/03/03 04:34:10;;;;;;;241.37;24.87;;;0.20;99.90;;;;;;4998163;28;20228;-84
2023/03/03 04:36:38;;;;;;;130.10;19.27;;;0.20;99.90;;;;;;5000832;28;20613;-83
2023/03/03 04:39:05;;;;;;;84.87;17.83;;;0.20;99.90;;;;;;5000684;28;20237;-83
2023/03/03 04:41:32;;;;;;;48.47;15.33;;;0.20;99.90;;;;;;5001408;28;20926;-83
2023/03/03 04:44:00;;;;;;;68.87;17.50;;;0.20;99.90;;;;;;5002603;28;20218;-83
2023/03/03 04:46:27;;;;;;;127.73;19.43;;;0.20;99.90;;;;;;5004944;28;20236;-83
2023/03/03 04:48:55;;;;;;;184.20;22.03;;;0.20;99.90;;;;;;5007850;28;20817;-83
2023/03/03 04:51:23;;;;;;;228.77;25.00;;;0.20;99.90;;;;;;5002023;28;20513;-82
2023/03/03 04:53:50;;;;;;;152.90;20.60;;;0.20;99.90;;;;;;5010486;28;20222;-82
2023/03/03 04:56:16;;;;;;;147.43;19.43;;;0.20;99.90;;;;;;5005955;28;20316;-81
2023/03/03 04:58:43;;;;;;;91.33;18.37;;;0.20;99.90;;;;;;5007349;28;20273;-82
2023/03/03 05:01:14;;;;;;;128.90;19.30;;;0.10;99.90;;;;;;4997740;28;20233;-83
2023/03/03 05:03:41;;;;;;;184.00;22.33;;;0.10;99.90;;;;;;5004783;28;20565;-84
2023/03/03 05:06:08;;;;;;;95.27;19.03;;;0.10;99.90;;;;;;5007360;28;20222;-83
2023/03/03 05:08:35;;;;;;;192.33;24.07;;;0.10;99.90;;;;;;5008889;28;20248;-83
2023/03/03 05:11:02;;;;;;;108.43;20.43;;;0.10;99.90;;;;;;4995728;28;20257;-82
2023/03/03 05:13:30;;;;;;;46.47;16.87;;;0.10;99.90;;;;;;5002478;23;20227;-91
2023/03/03 05:15:57;;;;;;;112.70;21.70;;;0.10;99.90;;;;;;5014170;28;20226;-91
2023/03/03 05:18:26;;;;;;;136.97;21.63;;;0.10;99.90;;;;;;4993604;28;22497;-92
2023/03/03 05:20:53;;;;;;;228.30;25.97;;;0.10;99.90;;;;;;5011337;28;20718;-91
2023/03/03 05:23:20;;;;;;;48.50;16.43;;;0.10;99.90;;;;;;5013630;28;20261;-92
2023/03/03 05:25:48;;;;;;;62.13;17.57;;;0.20;99.90;;;;;;5013565;28;20236;-94
2023/03/03 05:28:14;;;;;;;89.03;18.97;;;0.10;99.90;;;;;;5000190;28;20268;-94
2023/03/03 05:30:41;;;;;;;64.43;16.30;;;0.10;99.90;;;;;;5007314;28;20574;-94
2023/03/03 05:33:08;;;;;;;704.83;54.43;;;0.10;99.90;;;;;;5003889;28;20246;-95
2023/03/03 05:35:36;;;;;;;422.00;34.40;;;0.10;99.90;;;;;;5017170;28;20280;-93
2023/03/03 05:38:03;;;;;;;85.23;18.20;;;0.10;99.90;;;;;;5013657;28;20241;-94
2023/03/03 05:40:31;;;;;;;481.13;40.77;;;0.10;99.90;;;;;;5027165;28;20239;-92
2023/03/03 05:42:59;;;;;;;213.87;24.80;;;0.10;99.90;;;;;;5031703;28;20298;-94
2023/03/03 05:45:26;;;;;;;154.40;22.73;;;0.20;99.90;;;;;;5038503;28;20233;-95
2023/03/03 05:47:54;;;;;;;97.97;20.70;;;0.10;99.90;;;;;;5017812;28;20222;-96
2023/03/03 05:50:24;;;;;;;63.03;18.53;;;0.20;99.90;;;;;;5010725;23;20233;-80
2023/03/03 05:52:53;;;;;;;118.93;21.10;;;0.10;99.90;;;;;;4998113;28;20229;-80
2023/03/03 05:55:20;;;;;;;94.57;18.33;;;0.10;99.90;;;;;;5000606;28;20235;-79
2023/03/03 05:57:46;;;;;;;295.53;29.13;;;0.10;99.90;;;;;;5014830;28;20799;-79
2023/03/03 06:00:15;;;;;;;233.03;24.93;;;0.10;99.90;;;;;;5011911;28;20214;-79
2023/03/03 06:02:43;;;;;;;49.03;17.13;;;0.10;99.90;;;;;;5008243;28;20246;-80
2023/03/03 06:05:10;;;;;;;300.20;30.93;;;0.10;99.90;;;;;;4984234;28;20805;-76
2023/03/03 06:07:37;;;;;;;427.23;35.77;;;0.10;99.90;;;;;;5010618;28;20761;-77
2023/03/03 06:10:07;;;;;;;534.23;44.73;;;0.20;99.90;;;;;;4986856;28;20253;-79
2023/03/03 06:12:37;;;;;;;405.77;33.57;;;0.20;99.90;;;;;;4984636;28;20214;-80
2023/03/03 06:15:05;;;;;;;488.73;40.30;;;0.20;99.90;;;;;;5002436;28;20248;-79
2023/03/03 06:17:32;;;;;;;229.97;25.50;;;0.20;99.90;;;;;;5001279;28;20707;-77
2023/03/03 06:19:58;;;;;;;533.03;41.67;;;0.20;99.90;;;;;;4981082;28;20234;-77
2023/03/03 06:22:25;;;;;;;398.27;34.00;;;0.20;99.90;;;;;;4979000;28;20229;-77
2023/03/03 06:24:52;;;;;;;110.43;19.50;;;0.10;99.90;;;;;;4994009;28;20228;-76
2023/03/03 06:27:20;;;;;;;260.33;28.60;;;0.10;99.90;;;;;;4994451;28;20226;-77
2023/03/03 06:29:47;;;;;;;186.80;23.40;;;0.10;99.90;;;;;;4979946;28;20286;-76
2023/03/03 06:32:13;;;;;;;81.30;17.97;;;0.10;99.90;;;;;;5004054;28;20245;-76
2023/03/03 06:34:40;;;;;;;376.60;31.37;;;0.10;99.90;;;;;;4995653;28;20598;-77
2023/03/03 06:37:07;;;;;;;109.20;19.70;;;0.10;99.90;;;;;;4981908;28;20225;-77
2023/03/03 06:39:34;;;;;;;520.67;45.37;;;0.10;99.90;;;;;;5001853;28;21025;-77
2023/03/03 06:42:00;;;;;;;305.13;29.17;;;0.20;99.90;;;;;;4978101;28;20225;-76
2023/03/03 06:44:28;;;;;;;377.40;31.50;;;0.20;99.90;;;;;;5003250;28;20237;-76
2023/03/03 06:46:56;;;;;;;312.27;28.67;;;0.20;99.90;;;;;;5000063;28;20225;-76
2023/03/03 06:49:22;;;;;;;289.37;27.57;;;0.20;99.90;;;;;;4974512;28;20732;-77
2023/03/03 06:51:50;;;;;;;162.77;20.90;;;0.20;99.90;;;;;;4975808;28;20922;-77
2023/03/03 06:54:19;;;;;;;98.43;18.70;;;0.20;99.90;;;;;;4998465;28;20233;-77
2023/03/03 06:56:47;;;;;;;200.73;21.93;;;0.20;99.90;;;;;;5001319;28;20309;-77
2023/03/03 06:59:16;;;;;;;146.60;21.07;;;0.20;99.90;;;;;;4981001;28;20241;-77
2023/03/03 07:01:46;;;;;;;86.50;17.90;;;0.20;99.90;;;;;;4984127;28;20321;-77
2023/03/03 07:04:27;;;;;;;133.50;18.97;;;0.20;99.90;;;;;;4988318;28;20230;-77
2023/03/03 07:06:54;;;;;;;102.67;17.47;;;0.20;99.90;;;;;;5000451;28;20668;-78
2023/03/03 07:09:24;;;;;;;165.67;20.20;;;0.20;99.90;;;;;;4996651;28;20234;-77
2023/03/03 07:11:51;;;;;;;195.23;23.10;;;0.20;99.90;;;;;;4998326;28;20259;-77
2023/03/03 07:14:20;;;;;;;112.67;18.43;;;0.20;99.90;;;;;;5002945;28;20354;-77
2023/03/03 07:16:55;;;;;;;60.00;15.37;;;0.20;99.90;;;;;;4994293;28;20253;-77
2023/03/03 07:19:29;;;;;;;571.37;48.90;;;0.20;99.90;;;;;;4983008;28;20756;-77
2023/03/03 07:21:55;;;;;;;75.43;16.20;;;0.30;99.90;;;;;;4993038;28;20225;-77
2023/03/03 07:24:27;;;;;;;120.47;17.47;;;0.30;99.90;;;;;;4993039;28;20230;-77
2023/03/03 07:27:00;;;;;;;52.63;14.40;;;0.30;99.90;;;;;;4977394;28;20612;-77
2023/03/03 07:29:29;;;;;;;189.90;21.80;;;0.40;99.90;;;;;;5005487;28;20286;-76
2023/03/03 07:31:58;;;;;;;38.53;14.70;;;0.40;99.90;;;;;;5000016;28;20225;-76
2023/03/03 07:34:30;;;;;;;72.80;16.20;;;0.40;99.90;;;;;;4996308;28;20234;-77
2023/03/03 07:37:01;;;;;;;52.30;14.60;;;0.50;99.90;;;;;;4998915;28;20263;-77
2023/03/03 07:39:35;;;;;;;90.23;17.43;;;0.50;99.90;;;;;;4995460;28;20715;-77
2023/03/03 07:42:20;;;;;;;143.17;18.87;;;0.60;99.90;;;;;;4981755;28;20227;-77
2023/03/03 07:44:54;;;;;;;190.83;21.13;;;0.60;99.90;;;;;;4996481;28;20227;-77
2023/03/03 07:47:24;;;;;;;45.30;13.93;;;0.70;99.90;;;;;;4998958;28;20361;-77
2023/03/03 07:49:53;;;;;;;46.20;14.07;;;0.70;99.90;;;;;;4998213;28;20236;-77
2023/03/03 07:52:29;;;;;;;48.73;12.67;;;0.80;99.90;;;;;;4995594;28;20233;-76
2023/03/03 07:54:58;;;;;;;78.50;15.03;;;0.80;99.90;;;;;;5005052;28;20324;-76
2023/03/03 07:57:27;;;;;;;46.87;13.30;;;0.90;99.90;;;;;;4995010;28;20248;-76
2023/03/03 08:00:00;;;;;;;63.07;13.53;;;0.90;99.90;;;;;;5001369;28;20667;-76
2023/03/03 08:02:43;;;;;;;62.40;14.20;;;1.00;99.90;;;;;;4995422;28;20229;-78
2023/03/03 08:05:28;;;;;;;61.63;13.80;;;1.00;99.90;;;;;;5003608;28;21142;-78
2023/03/03 08:08:01;;;;;;;143.40;17.10;;;1.00;99.90;;;;;;5009455;28;20541;-78
2023/03/03 08:10:42;;;;;;;77.23;15.23;;;1.10;99.90;;;;;;5002535;28;20230;-77
2023/03/03 08:13:19;;;;;;;98.80;15.40;;;1.10;99.90;;;;;;5004876;28;20235;-78
2023/03/03 08:15:48;;;;;;;83.40;13.83;;;1.20;99.90;;;;;;4993347;28;20565;-76
2023/03/03 08:18:22;;;;;;;107.83;15.37;;;1.20;99.90;;;;;;4980900;28;20254;-77
2023/03/03 08:20:54;;;;;;;58.53;14.63;;;1.20;99.90;;;;;;5001636;28;20286;-77
2023/03/03 08:23:21;;;;;;;192.97;21.63;;;1.30;99.90;;;;;;4999962;28;20225;-77
2023/03/03 08:25:50;;;;;;;93.10;15.67;;;1.30;99.90;;;;;;5014389;28;20766;-78
2023/03/03 08:28:17;;;;;;;94.07;15.67;;;1.40;99.90;;;;;;4986708;28;20319;-77
2023/03/03 08:30:44;;;;;;;154.90;17.13;;;1.40;99.90;;;;;;5001550;28;20399;-77
2023/03/03 08:33:12;;;;;;;57.53;13.57;;;1.40;99.90;;;;;;5001913;28;20233;-77
2023/03/03 08:35:40;;;;;;;82.53;14.87;;;1.40;99.90;;;;;;4980681;28;20310;-77
2023/03/03 08:38:07;;;;;;;30.47;11.67;;;1.50;99.90;;;;;;4993695;28;20316;-77
2023/03/03 08:40:34;;;;;;;86.60;14.90;;;1.50;99.90;;;;;;4998686;28;20684;-77
2023/03/03 08:43:01;;;;;;;79.70;13.87;;;1.50;99.90;;;;;;4994257;28;20395;-77
2023/03/03 08:45:28;;;;;;;45.87;11.60;;;1.60;99.90;;;;;;4973894;28;20251;-77
2023/03/03 08:47:55;;;;;;;78.77;13.53;;;1.60;99.90;;;;;;5009976;28;20290;-77
2023/03/03 08:50:23;;;;;;;35.30;11.47;;;1.60;99.90;;;;;;4978701;28;20225;-78
2023/03/03 08:52:51;;;;;;;46.63;11.60;;;1.70;99.90;;;;;;5013598;28;20655;-77
2023/03/03 08:55:17;;;;;;;34.03;11.13;;;1.70;99.90;;;;;;4997951;28;20231;-77
2023/03/03 08:57:44;;;;;;;36.07;12.17;;;1.70;99.90;;;;;;5002064;28;20226;-77
2023/03/03 09:00:14;;;;;;;48.67;13.27;;;1.80;99.90;;;;;;4994724;28;20283;-77
2023/03/03 09:02:41;;;;;;;89.73;14.67;;;1.80;99.90;;;;;;4980036;28;20228;-77
2023/03/03 09:05:08;;;;;;;77.93;14.43;;;1.80;99.90;;;;;;4983897;28;21727;-77
2023/03/03 09:07:35;;;;;;;55.00;13.53;;;1.90;99.90;;;;;;4979641;28;20226;-78
2023/03/03 09:10:04;;;;;;;70.83;14.27;;;2.00;99.90;;;;;;4980107;28;20276;-77
2023/03/03 09:12:34;;;;;;;33.53;12.33;;;2.10;99.90;;;;;;4988369;28;20231;-77
2023/03/03 09:15:14;;;;;;;23.37;12.23;;;2.10;99.90;;;;;;4985414;28;20888;-77
2023/03/03 09:17:41;;;;;;;40.83;12.67;;;2.20;99.90;;;;;;5000309;28;20304;-77
2023/03/03 09:20:23;;;;;;;29.67;11.60;;;2.30;99.90;;;;;;4998091;28;20703;-77
2023/03/03 09:22:51;;;;;;;28.43;11.67;;;2.30;99.90;;;;;;4998632;28;20233;-77
2023/03/03 09:25:24;;;;;;;62.73;12.87;;;2.40;99.90;;;;;;4979660;28;20221;-77
2023/03/03 09:27:53;;;;;;;30.73;12.03;;;2.50;99.90;;;;;;4995039;28;20221;-77
2023/03/03 09:30:34;;;;;;;23.17;10.80;;;2.60;99.90;;;;;;4975418;28;20223;-77
2023/03/03 09:33:16;;;;;;;66.40;29.13;;;2.70;99.90;;;;;;4987732;28;20231;-77
2023/03/03 09:35:44;;;;;;;19.10;11.90;;;2.80;99.90;;;;;;4994454;28;20255;-78
2023/03/03 09:38:25;;;;;;;19.60;10.37;;;2.80;99.90;;;;;;4996724;28;20308;-77
2023/03/03 09:41:10;;;;;;;45.03;27.03;;;2.90;99.90;;;;;;4989994;28;20241;-77
2023/03/03 09:43:48;;;;;;;17.80;10.63;;;3.00;99.90;;;;;;4994110;28;20229;-77
2023/03/03 09:46:26;;;;;;;18.50;10.93;;;3.00;99.90;;;;;;4986092;28;20223;-77
2023/03/03 09:49:02;;;;;;;20.43;10.87;;;3.10;99.90;;;;;;4997787;28;21117;-77
2023/03/03 09:51:50;;;;;;;15.13;10.27;;;3.10;99.90;;;;;;4990964;28;20217;-77
2023/03/03 09:54:28;;;;;;;16.77;11.97;;;3.10;99.90;;;;;;4991784;28;20228;-77
2023/03/03 09:57:05;;;;;;;18.77;10.90;;;3.20;99.90;;;;;;4990472;28;20293;-77
2023/03/03 09:59:43;;;;;;;20.27;11.70;;;3.30;99.90;;;;;;4992014;28;20784;-77
2023/03/03 10:02:35;;;;;;;15.77;9.73;;;3.30;99.90;;;;;;4995410;28;20233;-77
2023/03/03 10:05:21;;;;;;;16.17;10.80;;;3.40;99.90;;;;;;4985331;28;20228;-77
2023/03/03 10:08:01;;;;;;;12.83;9.33;;;3.50;99.90;;;;;;4996172;28;20246;-78
2023/03/03 10:10:45;;;;;;;15.30;9.37;;;3.50;99.90;;;;;;4983548;28;20274;-78
2023/03/03 10:13:25;;;;;;;11.63;8.23;;;3.60;99.90;;;;;;4977580;28;20735;-78
2023/03/03 10:16:09;;;;;;;15.53;9.77;;;3.60;99.90;;;;;;4994777;28;20223;-77
2023/03/03 10:18:42;;;;;;;12.17;8.40;;;3.70;99.90;;;;;;4991738;28;20222;-77
2023/03/03 10:21:11;;;;;;;14.60;9.93;;;3.70;99.90;;;;;;4992811;28;20250;-77
2023/03/03 10:23:54;;;;;;;14.13;9.33;;;3.70;99.90;;;;;;5002471;28;20236;-77
2023/03/03 10:26:34;;;;;;;14.17;9.10;;;3.80;99.90;;;;;;5006988;28;20223;-77
2023/03/03 10:29:15;;;;;;;12.67;8.90;;;3.80;99.90;;;;;;4992145;28;20334;-77
2023/03/03 10:31:51;;;;;;;13.63;8.83;;;3.90;99.90;;;;;;4995823;28;20227;-78
2023/03/03 10:34:39;;;;;;;13.70;9.30;;;4.00;99.90;;;;;;4983492;28;20223;-77
2023/03/03 10:37:13;;;;;;;16.53;11.60;;;4.10;99.90;;;;;;4990125;28;20257;-77
2023/03/03 10:40:09;;;;;;;24.10;15.70;;;4.10;99.90;;;;;;4996134;28;20233;-77
2023/03/03 10:42:59;;;;;;;26.10;15.77;;;4.20;99.90;;;;;;4989684;28;20605;-77
2023/03/03 10:45:41;;;;;;;26.77;16.63;;;4.20;99.90;;;;;;4995805;28;20238;-77
2023/03/03 10:48:22;;;;;;;24.47;15.13;;;4.30;99.90;;;;;;4996441;28;20330;-77
2023/03/03 10:50:57;;;;;;;23.73;14.50;;;4.30;99.90;;;;;;4988290;28;20706;-77
2023/03/03 10:53:33;;;;;;;25.87;14.87;;;4.40;99.90;;;;;;4997314;28;20704;-77
2023/03/03 10:56:22;;;;;;;20.87;13.30;;;4.40;99.90;;;;;;5007042;28;20226;-77
2023/03/03 10:59:08;;;;;;;23.40;14.23;;;4.50;99.90;;;;;;4996708;28;20233;-77
2023/03/03 11:01:46;;;;;;;19.83;12.33;;;4.60;99.90;;;;;;4995322;28;20219;-77
2023/03/03 11:04:33;;;;;;;19.07;10.80;;;4.60;99.90;;;;;;4999642;28;20278;-77
2023/03/03 11:07:06;;;;;;;28.47;16.00;;;4.70;99.90;;;;;;4994496;28;20745;-77
2023/03/03 11:09:52;;;;;;;21.33;12.40;;;4.80;99.90;;;;;;4994640;28;20664;-77
2023/03/03 11:12:29;;;;;;;26.97;13.00;;;4.90;99.90;;;;;;5006600;28;20311;-77
2023/03/03 11:15:13;;;;;;;25.60;13.10;;;4.90;99.90;;;;;;5001212;28;20670;-77
2023/03/03 11:17:53;;;;;;;24.13;12.77;;;5.00;99.90;;;;;;4999674;28;20234;-79
2023/03/03 11:20:29;;;;;;;18.57;12.13;;;5.10;99.90;;;;;;4978334;28;20307;-77
2023/03/03 11:23:04;;;;;;;20.67;12.33;;;5.10;99.90;;;;;;5003217;28;20266;-77
2023/03/03 11:25:38;;;;;;;21.00;12.53;;;5.10;99.90;;;;;;4999994;28;20307;-78
2023/03/03 11:28:28;;;;;;;17.90;12.13;;;5.20;99.90;;;;;;5001403;28;20244;-79
2023/03/03 11:31:09;;;;;;;20.43;12.43;;;5.30;99.90;;;;;;5001834;28;20223;-78
2023/03/03 11:33:45;;;;;;;19.13;12.77;;;5.30;99.90;;;;;;4984965;28;20256;-77
2023/03/03 11:36:17;;;;;;;20.87;12.77;;;5.40;99.90;;;;;;4993006;28;20234;-77
2023/03/03 11:38:54;;;;;;;18.00;11.93;;;5.50;99.90;;;;;;4996560;28;20693;-77
2023/03/03 11:41:30;;;;;;;20.70;11.97;;;5.60;99.90;;;;;;4980564;28;20331;-78
2023/03/03 11:44:03;;;;;;;16.73;11.47;;;5.70;99.90;;;;;;4997615;28;20230;-77
2023/03/03 11:46:35;;;;;;;17.03;11.63;;;5.80;99.90;;;;;;4977745;28;20242;-77
2023/03/03 11:49:07;;;;;;;18.57;12.43;;;5.90;99.90;;;;;;4994031;28;20234;-77
2023/03/03 11:51:46;;;;;;;17.73;12.03;;;6.00;99.90;;;;;;4991182;28;20249;-78
2023/03/03 11:54:21;;;;;;;21.57;13.03;;;6.00;99.90;;;;;;4996836;28;20673;-77
2023/03/03 11:56:49;;;;;;;19.47;12.90;;;6.10;99.90;;;;;;4997408;28;20229;-77
2023/03/03 11:59:41;;;;;;;18.57;11.80;;;6.20;99.90;;;;;;5007066;28;20233;-77
2023/03/03 12:02:30;;;;;;;21.47;12.73;;;6.30;99.90;;;;;;4992558;28;20291;-77
2023/03/03 12:05:06;;;;;;;20.83;12.77;;;6.40;99.90;;;;;;4997619;28;20852;-77
2023/03/03 12:07:42;;;;;;;20.67;13.87;;;6.60;99.90;;;;;;4994700;28;22004;-77
2023/03/03 12:10:18;;;;;;;19.23;13.30;;;6.60;99.90;;;;;;5001704;28;20221;-77
2023/03/03 12:12:53;;;;;;;19.27;13.33;;;6.70;99.90;;;;;;5000421;28;20238;-78
2023/03/03 12:15:30;;;;;;;18.53;13.43;;;6.70;99.90;;;;;;5001658;28;20229;-77
2023/03/03 12:18:16;;;;;;;17.40;12.43;;;6.60;99.90;;;;;;4999122;28;20241;-77
2023/03/03 12:20:55;;;;;;;17.77;13.40;;;6.60;99.90;;;;;;5005039;28;20906;-78
2023/03/03 12:23:39;;;;;;;18.77;12.63;;;6.60;99.90;;;;;;5013643;28;20659;-77
2023/03/03 12:26:13;;;;;;;17.33;12.40;;;6.60;99.90;;;;;;4992232;28;20229;-76
2023/03/03 12:28:46;;;;;;;15.07;11.03;;;6.70;99.90;;;;;;4979502;28;20318;-78
2023/03/03 12:31:22;;;;;;;16.40;11.70;;;6.70;99.90;;;;;;4996538;28;20235;-76
2023/03/03 12:33:55;;;;;;;16.23;11.10;;;6.80;99.90;;;;;;4998430;28;20327;-77
2023/03/03 12:36:45;;;;;;;15.63;10.37;;;6.90;99.90;;;;;;4998502;28;20606;-77
2023/03/03 12:39:29;;;;;;;14.80;10.47;;;7.00;99.90;;;;;;5010627;28;20228;-77
2023/03/03 12:42:05;;;;;;;13.80;9.63;;;7.10;99.90;;;;;;4997907;28;20232;-77
2023/03/03 12:44:38;;;;;;;14.30;9.77;;;7.30;99.90;;;;;;4998117;28;20249;-77
2023/03/03 12:47:13;;;;;;;12.53;9.20;;;7.30;99.90;;;;;;5004373;23;20247;-79
2023/03/03 12:49:52;;;;;;;10.87;8.27;;;7.50;99.90;;;;;;4988111;28;20777;-79
2023/03/03 12:52:33;;;;;;;14.60;8.77;;;7.60;99.90;;;;;;4991584;28;20520;-79
2023/03/03 12:55:09;;;;;;;12.43;7.70;;;7.70;99.90;;;;;;4998772;28;20254;-79
2023/03/03 12:57:45;;;;;;;10.70;7.37;;;7.80;99.90;;;;;;4965182;28;20229;-79